createdAt,value
2018-05-06T00:01:33.202Z,54.40
2018-05-06T00:04:00.190Z,54.80
2018-05-06T00:06:27.173Z,54.40
2018-05-06T00:08:54.933Z,54.40
2018-05-06T00:11:22.694Z,54.40
2018-05-06T00:13:50.590Z,54.50
2018-05-06T00:16:17.574Z,54.40
2018-05-06T00:18:46.486Z,54.40
2018-05-06T00:21:13.485Z,54.40
2018-05-06T00:23:45.194Z,54.40
2018-05-06T00:26:12.958Z,54.60
2018-05-06T00:28:39.963Z,54.40
2018-05-06T00:31:06.950Z,54.40
2018-05-06T00:33:34.776Z,54.40
2018-05-06T00:36:14.113Z,54.40
2018-05-06T00:38:53.916Z,54.40
2018-05-06T00:41:20.912Z,54.40
2018-05-06T00:43:48.690Z,54.50
2018-05-06T00:46:18.882Z,54.50
2018-05-06T00:48:48.222Z,54.50
2018-05-06T00:51:15.910Z,54.50
2018-05-06T00:53:43.658Z,54.50
2018-05-06T00:56:13.634Z,54.40
2018-05-06T00:58:40.626Z,54.50
2018-05-06T01:01:08.387Z,55.10
2018-05-06T01:03:36.152Z,54.50
2018-05-06T01:06:03.909Z,54.50
2018-05-06T01:08:34.160Z,54.50
2018-05-06T01:11:07.606Z,54.40
2018-05-06T01:13:35.345Z,54.50
2018-05-06T01:16:09.705Z,54.50
2018-05-06T01:18:38.251Z,54.50
2018-05-06T01:21:08.035Z,54.50
2018-05-06T01:23:37.946Z,54.50
2018-05-06T01:26:04.943Z,54.50
2018-05-06T01:28:31.929Z,54.50
2018-05-06T01:31:01.599Z,54.50
2018-05-06T01:33:28.595Z,54.50
2018-05-06T01:35:55.761Z,54.50
2018-05-06T01:38:27.693Z,55.10
2018-05-06T01:41:10.627Z,54.50
2018-05-06T01:43:38.605Z,54.50
2018-05-06T01:46:06.425Z,54.50
2018-05-06T01:48:34.174Z,54.50
2018-05-06T01:51:01.165Z,54.50
2018-05-06T01:53:28.525Z,54.50
2018-05-06T01:55:55.502Z,54.60
2018-05-06T01:58:22.527Z,54.50
2018-05-06T02:00:50.039Z,54.50
2018-05-06T02:03:19.099Z,54.50
2018-05-06T02:05:46.127Z,54.50
2018-05-06T02:08:13.113Z,54.50
2018-05-06T02:10:40.097Z,54.50
2018-05-06T02:13:07.090Z,54.50
2018-05-06T02:15:34.607Z,54.50
2018-05-06T02:18:02.403Z,54.50
2018-05-06T02:20:36.218Z,54.50
2018-05-06T02:23:05.022Z,54.50
2018-05-06T02:25:39.306Z,54.60
2018-05-06T02:28:07.708Z,54.50
2018-05-06T02:30:34.718Z,54.50
2018-05-06T02:35:37.541Z,54.50
2018-05-06T02:38:04.533Z,54.50
2018-05-06T02:40:35.000Z,54.50
2018-05-06T02:43:13.673Z,54.50
2018-05-06T02:45:41.442Z,54.50
2018-05-06T02:48:09.261Z,54.50
2018-05-06T02:50:36.317Z,54.50
2018-05-06T02:53:05.255Z,54.50
2018-05-06T02:55:32.250Z,54.50
2018-05-06T02:58:14.159Z,54.50
2018-05-06T03:00:41.974Z,54.50
2018-05-06T03:03:12.393Z,55.10
2018-05-06T03:05:45.401Z,54.50
2018-05-06T03:08:15.104Z,54.50
2018-05-06T03:19:05.730Z,54.50
2018-05-06T03:21:32.727Z,54.60
2018-05-06T03:23:59.718Z,54.60
2018-05-06T03:26:26.722Z,54.60
2018-05-06T03:28:56.022Z,54.60
2018-05-06T03:31:27.099Z,54.60
2018-05-06T03:33:54.852Z,54.50
2018-05-06T03:36:23.878Z,54.50
2018-05-06T03:38:57.633Z,54.50
2018-05-06T03:41:24.658Z,54.60
2018-05-06T03:43:51.666Z,54.90
2018-05-06T03:46:21.483Z,54.50
2018-05-06T03:48:48.509Z,54.50
2018-05-06T03:51:15.493Z,54.50
2018-05-06T03:53:42.559Z,54.50
2018-05-06T03:56:24.851Z,54.50
2018-05-06T03:58:58.349Z,54.50
2018-05-06T04:01:26.809Z,54.50
2018-05-06T04:03:53.806Z,54.50
2018-05-06T04:06:20.799Z,54.50
2018-05-06T04:08:47.794Z,54.50
2018-05-06T04:11:14.794Z,54.50
2018-05-06T04:13:41.786Z,54.50
2018-05-06T04:16:11.515Z,54.50
2018-05-06T04:18:42.898Z,54.50
2018-05-06T04:21:10.745Z,54.40
2018-05-06T04:23:44.586Z,54.50
2018-05-06T04:26:11.958Z,54.40
2018-05-06T04:28:38.962Z,54.50
2018-05-06T04:31:13.478Z,54.50
2018-05-06T04:33:40.483Z,54.50
2018-05-06T04:36:10.942Z,54.40
2018-05-06T04:38:37.946Z,54.50
2018-05-06T04:41:10.746Z,54.50
2018-05-06T04:43:37.735Z,54.40
2018-05-06T04:46:07.066Z,54.40
2018-05-06T04:48:34.626Z,54.40
2018-05-06T04:51:05.318Z,54.40
2018-05-06T04:53:35.818Z,55.00
2018-05-06T04:56:06.746Z,54.40
2018-05-06T04:58:34.501Z,54.40
2018-05-06T05:01:07.734Z,54.40
2018-05-06T05:03:39.442Z,54.40
2018-05-06T05:06:06.434Z,54.50
2018-05-06T05:08:33.426Z,54.50
2018-05-06T05:11:08.166Z,54.50
2018-05-06T05:13:35.835Z,54.50
2018-05-06T05:16:10.501Z,54.50
2018-05-06T05:18:54.269Z,54.80
2018-05-06T05:21:24.137Z,54.50
2018-05-06T05:23:51.131Z,54.50
2018-05-06T05:26:21.142Z,54.50
2018-05-06T05:28:48.135Z,54.50
2018-05-06T05:31:19.877Z,54.50
2018-05-06T05:33:47.671Z,55.10
2018-05-06T05:36:16.214Z,54.40
2018-05-06T05:38:43.206Z,54.50
2018-05-06T05:41:17.091Z,54.50
2018-05-06T05:43:46.072Z,54.50
2018-05-06T05:46:13.838Z,54.50
2018-05-06T05:48:41.602Z,54.50
2018-05-06T05:51:09.370Z,54.50
2018-05-06T05:53:44.055Z,54.50
2018-05-06T05:56:13.742Z,54.40
2018-05-06T05:58:43.462Z,54.40
2018-05-06T06:01:12.775Z,54.40
2018-05-06T06:03:39.786Z,54.40
2018-05-06T06:06:06.779Z,54.40
2018-05-06T06:08:33.765Z,54.40
2018-05-06T06:11:00.759Z,54.40
2018-05-06T06:13:27.766Z,53.90
2018-05-06T06:15:54.766Z,53.50
2018-05-06T06:18:21.770Z,52.90
2018-05-06T06:20:48.772Z,52.70
2018-05-06T06:23:18.238Z,52.40
2018-05-06T06:25:46.334Z,52.80
2018-05-06T06:28:13.323Z,52.70
2018-05-06T06:30:40.326Z,52.90
2018-05-06T06:33:08.944Z,53.20
2018-05-06T06:35:39.467Z,53.40
2018-05-06T06:38:08.021Z,53.50
2018-05-06T06:40:36.807Z,53.50
2018-05-06T06:43:03.795Z,53.80
2018-05-06T06:45:30.790Z,53.80
2018-05-06T06:47:59.119Z,53.80
2018-05-06T06:50:27.587Z,54.50
2018-05-06T06:52:54.587Z,53.80
2018-05-06T06:55:23.444Z,53.90
2018-05-06T06:57:50.455Z,53.90
2018-05-06T07:00:18.210Z,54.00
2018-05-06T07:02:46.335Z,54.00
2018-05-06T07:05:13.837Z,54.00
2018-05-06T07:07:40.836Z,54.00
2018-05-06T07:10:09.496Z,54.00
2018-05-06T07:12:36.486Z,54.00
2018-05-06T07:15:09.650Z,53.90
2018-05-06T07:17:36.645Z,54.00
2018-05-06T07:20:03.643Z,54.00
2018-05-06T07:22:30.637Z,53.90
2018-05-06T07:24:57.629Z,54.00
2018-05-06T07:27:24.627Z,53.90
2018-05-06T07:29:58.395Z,53.90
2018-05-06T07:32:26.195Z,53.90
2018-05-06T07:34:56.835Z,53.80
2018-05-06T07:37:24.623Z,53.90
2018-05-06T07:39:51.618Z,53.80
2018-05-06T07:42:19.106Z,53.80
2018-05-06T07:44:46.873Z,53.80
2018-05-06T07:47:14.643Z,53.80
2018-05-06T07:49:42.410Z,53.80
2018-05-06T07:52:13.730Z,53.80
2018-05-06T07:54:40.723Z,53.90
2018-05-06T07:57:07.749Z,53.90
2018-05-06T07:59:35.507Z,54.00
2018-05-06T08:02:04.377Z,53.80
2018-05-06T08:04:31.372Z,53.80
2018-05-06T08:07:04.705Z,53.50
2018-05-06T08:09:31.764Z,53.90
2018-05-06T08:11:59.531Z,53.90
2018-05-06T08:14:28.022Z,53.80
2018-05-06T08:16:55.022Z,53.90
2018-05-06T08:19:29.231Z,53.90
2018-05-06T08:21:56.256Z,53.80
2018-05-06T08:24:23.999Z,53.40
2018-05-06T08:26:52.905Z,51.80
2018-05-06T08:29:22.374Z,51.80
2018-05-06T08:31:49.366Z,53.20
2018-05-06T08:34:18.264Z,52.80
2018-05-06T08:36:45.246Z,53.00
2018-05-06T08:39:12.238Z,53.30
2018-05-06T08:41:39.234Z,53.20
2018-05-06T08:44:06.247Z,53.30
2018-05-06T08:46:33.235Z,53.40
2018-05-06T08:49:00.221Z,53.30
2018-05-06T08:51:28.455Z,53.30
2018-05-06T08:53:55.468Z,53.40
2018-05-06T08:56:23.279Z,53.40
2018-05-06T08:58:51.040Z,53.20
2018-05-06T09:01:18.042Z,53.10
2018-05-06T09:03:45.026Z,53.20
2018-05-06T09:06:12.806Z,53.20
2018-05-06T09:08:40.567Z,53.20
2018-05-06T09:11:08.347Z,53.20
2018-05-06T09:13:38.912Z,53.20
2018-05-06T09:16:05.930Z,53.30
2018-05-06T09:18:32.922Z,53.40
2018-05-06T09:21:03.491Z,53.40
2018-05-06T09:23:31.344Z,53.40
2018-05-06T09:26:06.862Z,53.70
2018-05-06T09:28:33.850Z,54.20
2018-05-06T09:31:04.341Z,53.40
2018-05-06T09:33:31.973Z,53.60
2018-05-06T09:35:58.966Z,53.70
2018-05-06T09:38:26.717Z,53.70
2018-05-06T09:40:54.510Z,53.50
2018-05-06T09:43:21.498Z,54.30
2018-05-06T09:45:48.562Z,53.60
2018-05-06T09:48:16.159Z,53.70
2018-05-06T09:50:47.441Z,53.70
2018-05-06T09:53:14.438Z,53.70
2018-05-06T09:55:42.196Z,53.50
2018-05-06T09:58:10.355Z,53.90
2018-05-06T10:00:39.983Z,53.60
2018-05-06T10:03:07.757Z,53.60
2018-05-06T10:05:35.510Z,53.70
2018-05-06T10:08:03.274Z,53.70
2018-05-06T10:10:31.034Z,53.70
2018-05-06T10:12:59.281Z,53.60
2018-05-06T10:15:26.267Z,53.60
2018-05-06T10:17:54.038Z,53.50
2018-05-06T10:20:21.032Z,53.50
2018-05-06T10:22:52.614Z,53.60
2018-05-06T10:25:19.604Z,53.60
2018-05-06T10:27:47.379Z,53.50
2018-05-06T10:30:15.754Z,53.50
2018-05-06T10:32:43.630Z,53.50
2018-05-06T10:35:10.620Z,53.50
2018-05-06T10:37:38.382Z,53.50
2018-05-06T10:40:06.142Z,53.50
2018-05-06T10:42:33.670Z,53.50
2018-05-06T10:45:00.650Z,53.50
2018-05-06T10:47:28.417Z,53.50
2018-05-06T10:49:56.191Z,53.50
2018-05-06T10:52:24.111Z,53.40
2018-05-06T10:54:53.822Z,53.30
2018-05-06T10:57:23.497Z,53.50
2018-05-06T10:59:50.500Z,53.50
2018-05-06T11:02:18.513Z,53.50
2018-05-06T11:04:47.458Z,51.60
2018-05-06T11:07:14.445Z,51.40
2018-05-06T11:09:41.446Z,52.50
2018-05-06T11:12:09.734Z,52.90
2018-05-06T11:14:40.145Z,53.10
2018-05-06T11:17:07.152Z,53.10
2018-05-06T11:19:34.151Z,53.10
2018-05-06T11:22:02.851Z,53.10
2018-05-06T11:24:31.358Z,53.10
2018-05-06T11:26:58.342Z,53.10
2018-05-06T11:29:27.374Z,53.10
2018-05-06T11:31:54.371Z,53.10
2018-05-06T11:34:21.362Z,53.20
2018-05-06T11:36:48.361Z,53.10
2018-05-06T11:39:18.635Z,53.20
2018-05-06T11:41:46.459Z,53.20
2018-05-06T11:44:20.098Z,53.20
2018-05-06T11:46:47.092Z,53.20
2018-05-06T11:49:14.755Z,53.20
2018-05-06T11:51:41.758Z,52.90
2018-05-06T11:54:08.769Z,52.80
2018-05-06T11:56:43.202Z,53.10
2018-05-06T11:59:10.957Z,53.10
2018-05-06T12:01:37.950Z,53.00
2018-05-06T12:04:04.989Z,52.60
2018-05-06T12:06:31.970Z,47.30
2018-05-06T12:08:58.958Z,48.60
2018-05-06T12:11:27.531Z,50.80
2018-05-06T12:13:55.306Z,51.20
2018-05-06T12:16:26.410Z,51.50
2018-05-06T12:18:53.406Z,51.40
2018-05-06T12:21:20.395Z,51.60
2018-05-06T12:23:48.461Z,51.20
2018-05-06T12:26:15.462Z,49.50
2018-05-06T12:28:42.454Z,50.60
2018-05-06T12:31:09.449Z,50.90
2018-05-06T12:33:37.298Z,51.40
2018-05-06T12:36:04.242Z,51.40
2018-05-06T12:38:31.998Z,49.60
2018-05-06T12:40:58.994Z,49.60
2018-05-06T12:43:26.088Z,49.70
2018-05-06T12:45:53.750Z,50.60
2018-05-06T12:48:20.741Z,50.60
2018-05-06T12:50:47.734Z,51.10
2018-05-06T12:53:14.811Z,49.90
2018-05-06T12:55:42.567Z,51.00
2018-05-06T12:58:10.322Z,48.50
2018-05-06T13:00:40.546Z,48.50
2018-05-06T13:03:10.125Z,50.70
2018-05-06T13:05:37.111Z,50.60
2018-05-06T13:08:04.894Z,50.90
2018-05-06T13:10:31.898Z,50.90
2018-05-06T13:12:58.922Z,51.10
2018-05-06T13:15:26.313Z,50.60
2018-05-06T13:17:54.055Z,51.10
2018-05-06T13:20:21.065Z,50.90
2018-05-06T13:22:49.815Z,51.20
2018-05-06T13:25:17.566Z,50.90
2018-05-06T13:27:46.059Z,51.40
2018-05-06T13:30:13.821Z,51.30
2018-05-06T13:32:53.446Z,51.30
2018-05-06T13:35:20.437Z,51.30
2018-05-06T13:37:47.425Z,51.50
2018-05-06T13:40:14.434Z,52.10
2018-05-06T13:42:44.107Z,51.70
2018-05-06T13:45:11.867Z,51.80
2018-05-06T13:47:39.211Z,51.70
2018-05-06T13:50:06.253Z,51.90
2018-05-06T13:52:33.209Z,51.90
2018-05-06T13:55:01.486Z,51.90
2018-05-06T13:57:29.246Z,52.00
2018-05-06T13:59:57.014Z,52.40
2018-05-06T14:02:24.794Z,52.00
2018-05-06T14:04:52.733Z,52.00
2018-05-06T14:07:19.717Z,52.00
2018-05-06T14:09:47.548Z,52.10
2018-05-06T14:12:16.050Z,52.10
2018-05-06T14:14:43.059Z,52.10
2018-05-06T14:17:11.432Z,52.10
2018-05-06T14:19:38.397Z,52.10
2018-05-06T14:22:05.392Z,52.10
2018-05-06T14:24:33.032Z,52.10
2018-05-06T14:27:00.438Z,52.10
2018-05-06T14:29:27.475Z,52.10
2018-05-06T14:31:54.457Z,52.10
2018-05-06T14:34:22.218Z,51.90
2018-05-06T14:36:52.066Z,49.90
2018-05-06T14:39:19.105Z,49.90
2018-05-06T14:41:48.836Z,49.20
2018-05-06T14:44:16.835Z,49.40
2018-05-06T14:46:49.746Z,49.50
2018-05-06T14:49:20.761Z,50.70
2018-05-06T14:51:47.749Z,50.70
2018-05-06T14:54:14.821Z,50.70
2018-05-06T14:56:42.262Z,50.80
2018-05-06T14:59:09.959Z,51.00
2018-05-06T15:01:37.896Z,51.10
2018-05-06T15:04:04.878Z,51.30
2018-05-06T15:06:32.537Z,51.40
2018-05-06T15:09:00.206Z,51.40
2018-05-06T15:11:27.203Z,51.40
2018-05-06T15:13:54.177Z,51.50
2018-05-06T15:16:21.176Z,51.50
2018-05-06T15:18:52.653Z,51.70
2018-05-06T15:21:19.726Z,51.60
2018-05-06T15:23:46.706Z,51.40
2018-05-06T15:26:21.234Z,52.20
2018-05-06T15:28:48.991Z,51.80
2018-05-06T15:31:15.975Z,51.70
2018-05-06T15:33:42.965Z,51.80
2018-05-06T15:36:11.361Z,51.80
2018-05-06T15:38:39.813Z,51.90
2018-05-06T15:41:06.886Z,51.80
2018-05-06T15:43:40.080Z,51.90
2018-05-06T15:46:07.838Z,52.00
2018-05-06T15:48:35.490Z,52.00
2018-05-06T15:51:02.480Z,52.00
2018-05-06T15:53:29.474Z,52.00
2018-05-06T15:55:56.465Z,52.00
2018-05-06T15:58:28.018Z,51.90
2018-05-06T16:00:56.864Z,51.80
2018-05-06T16:03:29.834Z,52.00
2018-05-06T16:05:57.754Z,52.10
2018-05-06T16:08:24.754Z,52.10
2018-05-06T16:10:52.402Z,51.90
2018-05-06T16:13:20.422Z,52.00
2018-05-06T16:15:48.770Z,52.00
2018-05-06T16:18:15.762Z,52.00
2018-05-06T16:20:43.409Z,52.00
2018-05-06T16:23:23.992Z,52.00
2018-05-06T16:25:50.986Z,52.00
2018-05-06T16:28:17.965Z,52.00
2018-05-06T16:30:45.754Z,52.10
2018-05-06T16:33:12.767Z,52.00
2018-05-06T16:35:41.302Z,52.10
2018-05-06T16:38:08.280Z,52.00
2018-05-06T16:40:36.901Z,52.10
2018-05-06T16:43:03.901Z,52.10
2018-05-06T16:45:37.626Z,52.00
2018-05-06T16:48:05.453Z,52.10
2018-05-06T16:50:37.937Z,52.10
2018-05-06T16:53:04.970Z,52.10
2018-05-06T16:55:33.575Z,52.10
2018-05-06T16:58:05.119Z,52.10
2018-05-06T17:00:33.917Z,52.30
2018-05-06T17:03:00.918Z,52.20
2018-05-06T17:05:28.175Z,52.20
2018-05-06T17:07:55.169Z,52.30
2018-05-06T17:10:22.165Z,52.20
2018-05-06T17:12:50.162Z,51.80
2018-05-06T17:15:17.181Z,52.20
2018-05-06T17:17:44.231Z,52.20
2018-05-06T17:20:12.099Z,52.20
2018-05-06T17:22:39.121Z,52.20
2018-05-06T17:25:06.119Z,52.30
2018-05-06T17:27:33.670Z,52.20
2018-05-06T17:30:00.688Z,52.80
2018-05-06T17:32:27.673Z,52.30
2018-05-06T17:34:55.239Z,52.30
2018-05-06T17:37:23.119Z,52.30
2018-05-06T17:39:50.883Z,52.20
2018-05-06T17:42:19.353Z,52.30
2018-05-06T17:44:49.557Z,52.20
2018-05-06T17:47:17.529Z,52.20
2018-05-06T17:49:44.511Z,52.30
2018-05-06T17:52:11.559Z,52.20
2018-05-06T17:54:39.312Z,52.20
2018-05-06T17:57:07.586Z,52.30
2018-05-06T17:59:35.347Z,52.30
2018-05-06T18:02:03.105Z,52.30
2018-05-06T18:04:30.857Z,52.40
2018-05-06T18:06:58.577Z,52.20
2018-05-06T18:09:25.565Z,52.00
2018-05-06T18:11:54.022Z,52.10
2018-05-06T18:14:21.018Z,52.00
2018-05-06T18:16:53.874Z,52.20
2018-05-06T18:19:20.878Z,52.20
2018-05-06T18:21:47.875Z,52.20
2018-05-06T18:24:15.639Z,53.00
2018-05-06T18:26:43.719Z,52.30
2018-05-06T18:29:11.473Z,52.40
2018-05-06T18:31:42.223Z,52.10
2018-05-06T18:34:10.030Z,51.80
2018-05-06T18:36:37.043Z,51.80
2018-05-06T18:39:04.036Z,52.00
2018-05-06T18:41:31.335Z,52.20
2018-05-06T18:43:59.590Z,52.10
2018-05-06T18:46:26.590Z,52.00
2018-05-06T18:48:55.894Z,52.10
2018-05-06T18:51:23.729Z,52.10
2018-05-06T18:53:51.922Z,52.30
2018-05-06T18:56:18.964Z,52.20
2018-05-06T18:58:48.979Z,52.20
2018-05-06T19:01:16.639Z,52.30
2018-05-06T19:03:43.633Z,52.30
2018-05-06T19:06:10.676Z,52.30
2018-05-06T19:08:37.683Z,52.30
2018-05-06T19:11:06.060Z,52.40
2018-05-06T19:13:33.058Z,52.40
2018-05-06T19:16:01.798Z,52.40
2018-05-06T19:18:28.789Z,52.80
2018-05-06T19:20:59.409Z,52.40
2018-05-06T19:23:29.338Z,52.40
2018-05-06T19:25:56.945Z,52.40
2018-05-06T19:28:23.937Z,52.50
2018-05-06T19:30:50.935Z,52.50
2018-05-06T19:33:17.946Z,52.50
2018-05-06T19:35:45.704Z,52.50
2018-05-06T19:38:13.512Z,52.50
2018-05-06T19:40:40.506Z,52.40
2018-05-06T19:43:07.498Z,52.50
2018-05-06T19:45:34.486Z,53.00
2018-05-06T19:48:01.490Z,52.50
2018-05-06T19:50:28.495Z,52.50
2018-05-06T19:52:56.330Z,53.30
2018-05-06T19:55:23.326Z,52.50
2018-05-06T19:57:53.466Z,52.50
2018-05-06T20:00:23.966Z,52.50
2018-05-06T20:02:53.414Z,52.50
2018-05-06T20:05:21.869Z,52.50
2018-05-06T20:07:48.870Z,52.50
2018-05-06T20:10:15.875Z,52.50
2018-05-06T20:12:45.835Z,52.50
2018-05-06T20:15:12.838Z,52.50
2018-05-06T20:17:39.854Z,52.60
2018-05-06T20:20:11.071Z,52.70
2018-05-06T20:22:38.088Z,52.70
2018-05-06T20:25:05.595Z,52.70
2018-05-06T20:27:33.359Z,52.60
2018-05-06T20:30:01.119Z,52.60
2018-05-06T20:32:28.882Z,52.60
2018-05-06T20:34:56.647Z,52.60
2018-05-06T20:37:24.398Z,52.70
2018-05-06T20:39:52.251Z,52.60
2018-05-06T20:42:19.909Z,52.60
2018-05-06T20:44:49.029Z,52.60
2018-05-06T20:47:17.437Z,52.70
2018-05-06T20:49:44.431Z,52.60
2018-05-06T20:52:11.425Z,52.70
2018-05-06T20:54:38.634Z,52.70
2018-05-06T20:57:10.813Z,52.70
2018-05-06T20:59:41.726Z,52.70
2018-05-06T21:02:12.565Z,52.70
2018-05-06T21:04:39.606Z,52.70
2018-05-06T21:07:15.382Z,52.70
2018-05-06T21:09:47.538Z,52.80
2018-05-06T21:12:14.538Z,52.80
2018-05-06T21:17:14.473Z,52.80
2018-05-06T21:19:48.526Z,52.80
2018-05-06T21:22:15.528Z,52.80
2018-05-06T21:24:50.283Z,53.00
2018-05-06T21:27:24.217Z,52.90
2018-05-06T21:29:51.996Z,52.90
2018-05-06T21:32:19.738Z,52.80
2018-05-06T21:34:46.942Z,52.90
2018-05-06T21:37:14.038Z,52.90
2018-05-06T21:39:43.385Z,52.90
2018-05-06T21:42:10.315Z,52.50
2018-05-06T21:44:37.309Z,52.80
2018-05-06T21:47:08.910Z,52.90
2018-05-06T21:49:36.961Z,52.90
2018-05-06T21:52:04.714Z,52.90
2018-05-06T21:54:31.757Z,52.80
2018-05-06T21:57:09.645Z,52.80
2018-05-06T21:59:36.632Z,52.80
2018-05-06T22:02:10.794Z,52.80
2018-05-06T22:04:43.419Z,52.80
2018-05-06T22:07:13.874Z,52.80
2018-05-06T22:09:43.041Z,52.80
2018-05-06T22:12:10.027Z,52.80
2018-05-06T22:14:37.162Z,52.80
2018-05-06T22:17:04.150Z,52.80
2018-05-06T22:19:34.182Z,53.40
2018-05-06T22:22:08.854Z,52.90
2018-05-06T22:24:36.634Z,52.80
2018-05-06T22:27:23.302Z,52.80
2018-05-06T22:29:51.017Z,52.80
2018-05-06T22:32:18.014Z,52.80
2018-05-06T22:34:49.302Z,52.80
2018-05-06T22:37:16.294Z,52.90
2018-05-06T22:39:44.854Z,52.80
2018-05-06T22:42:11.846Z,52.80
2018-05-06T22:44:38.853Z,53.50
2018-05-06T22:47:08.030Z,52.90
2018-05-06T22:49:38.841Z,52.80
2018-05-06T22:52:07.239Z,52.80
2018-05-06T22:54:34.246Z,52.90
2018-05-06T22:57:01.930Z,52.90
2018-05-06T22:59:28.985Z,52.90
2018-05-06T23:02:12.137Z,53.00
2018-05-06T23:04:39.124Z,52.90
2018-05-06T23:07:06.119Z,53.00
2018-05-06T23:09:33.117Z,53.00
2018-05-06T23:12:00.110Z,53.00
2018-05-06T23:14:27.101Z,53.00
2018-05-06T23:16:55.547Z,53.00
2018-05-06T23:19:22.549Z,53.00
2018-05-06T23:21:56.886Z,53.10
2018-05-06T23:24:23.896Z,53.00
2018-05-06T23:26:53.626Z,53.10
2018-05-06T23:29:24.153Z,53.10
2018-05-06T23:31:55.318Z,53.00
2018-05-06T23:34:22.873Z,53.10
2018-05-06T23:36:52.638Z,53.10
2018-05-06T23:39:19.771Z,53.10
2018-05-06T23:41:47.538Z,53.70
2018-05-06T23:44:15.443Z,53.10
2018-05-06T23:46:42.361Z,53.00
2018-05-06T23:49:09.390Z,53.10
2018-05-06T23:51:37.001Z,53.10
2018-05-06T23:54:03.984Z,53.10
2018-05-06T23:56:34.752Z,53.10
2018-05-06T23:59:02.563Z,53.10
